Time;durP1;ratioP1;P1;durP2;ratioP2;P2;SDS_P1;SDS_P2;PMS_P1;PMS_P2;Temp;Humidity;BMP_temperature;BMP_pressure;BME280_temperature;BME280_humidity;BME280_pressure;Samples;Min_cycle;Max_cycle;Signal;HPM_P1;HPM_P2
2022/02/21 00:00:48;;;;;;;29.92;4.68;;;;;;;;;;5080753;28;20028;-51
2022/02/21 00:03:15;;;;;;;14.85;2.50;;;;;;;;;;5080493;28;20614;-50
2022/02/21 00:05:41;;;;;;;19.17;2.47;;;;;;;;;;5077429;28;20040;-56
2022/02/21 00:08:07;;;;;;;27.48;4.15;;;;;;;;;;5078985;28;20460;-50
2022/02/21 00:10:33;;;;;;;17.42;2.50;;;;;;;;;;5076898;28;20582;-55
2022/02/21 00:12:58;;;;;;;34.15;4.80;;;;;;;;;;5081433;28;20035;-51
2022/02/21 00:15:24;;;;;;;20.60;4.07;;;;;;;;;;5077942;28;20024;-54
2022/02/21 00:17:51;;;;;;;34.65;3.30;;;;;;;;;;5078047;28;20025;-54
2022/02/21 00:20:16;;;;;;;14.27;3.13;;;;;;;;;;5080110;28;20103;-51
2022/02/21 00:22:42;;;;;;;20.13;3.50;;;;;;;;;;5083510;28;20532;-50
2022/02/21 00:25:08;;;;;;;18.60;2.88;;;;;;;;;;5080045;28;20545;-50
2022/02/21 00:27:33;;;;;;;22.75;3.60;;;;;;;;;;5075953;28;20461;-54
2022/02/21 00:29:59;;;;;;;30.42;4.93;;;;;;;;;;5077448;28;20052;-52
2022/02/21 00:32:25;;;;;;;26.65;3.28;;;;;;;;;;5082824;28;20102;-51
2022/02/21 00:34:50;;;;;;;22.92;3.25;;;;;;;;;;5077234;28;20031;-50
2022/02/21 00:37:15;;;;;;;41.95;4.40;;;;;;;;;;5081830;28;20041;-54
2022/02/21 00:39:41;;;;;;;19.92;2.65;;;;;;;;;;5083363;28;20043;-51
2022/02/21 00:42:07;;;;;;;21.25;3.35;;;;;;;;;;5080987;28;20441;-51
2022/02/21 00:44:32;;;;;;;24.33;4.18;;;;;;;;;;5079395;28;20044;-51
2022/02/21 00:47:00;;;;;;;31.85;5.10;;;;;;;;;;5077909;28;20182;-52
2022/02/21 00:49:26;;;;;;;31.25;4.28;;;;;;;;;;5078854;28;20028;-52
2022/02/21 00:51:51;;;;;;;35.58;4.07;;;;;;;;;;5079714;28;20047;-53
2022/02/21 00:54:17;;;;;;;39.90;5.60;;;;;;;;;;5079527;28;20032;-53
2022/02/21 00:56:42;;;;;;;24.70;3.08;;;;;;;;;;5082884;28;20055;-52
2022/02/21 00:59:08;;;;;;;33.58;4.28;;;;;;;;;;5076478;28;20506;-53
2022/02/21 01:01:33;;;;;;;27.98;3.70;;;;;;;;;;5062465;28;20040;-55
2022/02/21 01:03:59;;;;;;;30.63;3.08;;;;;;;;;;5064274;28;20041;-51
2022/02/21 01:06:24;;;;;;;41.80;4.68;;;;;;;;;;5064469;28;20067;-50
2022/02/21 01:08:50;;;;;;;21.00;3.58;;;;;;;;;;5064518;28;20410;-49
2022/02/21 01:11:15;;;;;;;21.13;3.03;;;;;;;;;;5060781;28;20040;-53
2022/02/21 01:13:41;;;;;;;35.20;3.03;;;;;;;;;;5069158;28;20191;-56
2022/02/21 01:16:07;;;;;;;29.20;4.40;;;;;;;;;;5064661;28;20071;-53
2022/02/21 01:18:33;;;;;;;40.67;3.65;;;;;;;;;;5066454;28;20402;-53
2022/02/21 01:21:00;;;;;;;24.33;3.47;;;;;;;;;;5063739;28;20305;-53
2022/02/21 01:23:26;;;;;;;26.98;3.75;;;;;;;;;;5063879;28;20039;-54
2022/02/21 01:25:51;;;;;;;16.08;2.45;;;;;;;;;;5065449;28;20036;-53
2022/02/21 01:28:17;;;;;;;24.55;3.90;;;;;;;;;;5065376;28;20044;-53
2022/02/21 01:30:42;;;;;;;18.08;3.28;;;;;;;;;;5063198;28;20274;-55
2022/02/21 01:33:08;;;;;;;16.13;3.83;;;;;;;;;;5065906;28;20040;-53
2022/02/21 01:35:33;;;;;;;39.17;4.18;;;;;;;;;;5067769;28;20033;-53
2022/02/21 01:37:59;;;;;;;28.77;4.55;;;;;;;;;;5064579;28;20033;-54
2022/02/21 01:40:24;;;;;;;40.92;5.50;;;;;;;;;;5064537;28;20475;-56
2022/02/21 01:42:50;;;;;;;28.08;3.85;;;;;;;;;;5069131;28;20039;-54
2022/02/21 01:45:16;;;;;;;30.85;4.40;;;;;;;;;;5063912;28;20070;-55
2022/02/21 01:47:42;;;;;;;31.83;5.22;;;;;;;;;;5066667;28;20028;-55
2022/02/21 01:50:08;;;;;;;39.10;5.47;;;;;;;;;;5064668;28;20053;-55
2022/02/21 01:52:34;;;;;;;32.90;4.90;;;;;;;;;;5067614;28;20062;-53
2022/02/21 01:54:59;;;;;;;29.90;3.80;;;;;;;;;;5061785;28;20035;-54
2022/02/21 01:57:26;;;;;;;24.70;3.05;;;;;;;;;;5062444;28;20063;-54
2022/02/21 01:59:52;;;;;;;34.25;4.30;;;;;;;;;;5068460;28;20291;-53
2022/02/21 02:02:18;;;;;;;29.27;4.10;;;;;;;;;;5067826;28;20473;-55
2022/02/21 02:04:43;;;;;;;32.80;4.93;;;;;;;;;;5063802;28;20123;-54
2022/02/21 02:07:12;;;;;;;32.80;3.72;;;;;;;;;;5065657;28;20036;-51
2022/02/21 02:09:39;;;;;;;31.35;6.07;;;;;;;;;;5064957;28;20040;-51
2022/02/21 02:12:07;;;;;;;22.23;3.47;;;;;;;;;;5067720;28;20024;-54
2022/02/21 02:14:35;;;;;;;47.30;5.82;;;;;;;;;;5062894;28;20036;-52
2022/02/21 02:17:20;;;;;;;22.70;3.25;;;;;;;;;;5064418;28;20028;-52
2022/02/21 02:19:47;;;;;;;34.97;5.38;;;;;;;;;;5065009;28;20426;-56
2022/02/21 02:22:18;;;;;;;25.25;3.75;;;;;;;;;;5063531;28;20020;-54
2022/02/21 02:24:46;;;;;;;45.90;6.03;;;;;;;;;;5062562;28;20763;-54
2022/02/21 02:27:12;;;;;;;25.38;4.15;;;;;;;;;;5068985;28;20032;-54
2022/02/21 02:29:39;;;;;;;41.35;5.60;;;;;;;;;;5062704;28;20047;-55
2022/02/21 02:32:06;;;;;;;36.67;4.18;;;;;;;;;;5063953;28;20025;-53
2022/02/21 02:34:32;;;;;;;38.13;4.97;;;;;;;;;;5063358;28;20033;-54
2022/02/21 02:36:58;;;;;;;40.10;5.43;;;;;;;;;;5066247;28;20036;-53
2022/02/21 02:39:24;;;;;;;38.17;4.80;;;;;;;;;;5066342;28;20421;-54
2022/02/21 02:41:50;;;;;;;50.05;6.18;;;;;;;;;;5066763;28;20072;-57
2022/02/21 02:44:15;;;;;;;40.40;6.05;;;;;;;;;;5065143;28;20429;-55
2022/02/21 02:46:41;;;;;;;50.40;6.32;;;;;;;;;;5066661;28;20071;-53
2022/02/21 02:49:06;;;;;;;28.05;4.38;;;;;;;;;;5060368;28;20039;-56
2022/02/21 02:51:32;;;;;;;34.97;3.67;;;;;;;;;;5065312;28;20041;-51
2022/02/21 02:53:57;;;;;;;38.83;5.60;;;;;;;;;;5067698;28;20028;-56
2022/02/21 02:56:23;;;;;;;50.90;6.40;;;;;;;;;;5062217;28;20044;-55
2022/02/21 02:58:48;;;;;;;47.95;5.70;;;;;;;;;;5064872;28;20033;-54
2022/02/21 03:01:14;;;;;;;17.98;3.45;;;;;;;;;;5063314;28;20024;-55
2022/02/21 03:03:40;;;;;;;41.50;7.30;;;;;;;;;;5065979;28;20039;-54
2022/02/21 03:06:05;;;;;;;35.75;5.45;;;;;;;;;;5063360;28;20048;-56
2022/02/21 03:08:31;;;;;;;42.95;6.35;;;;;;;;;;5065315;28;20583;-57
2022/02/21 03:10:56;;;;;;;36.35;5.75;;;;;;;;;;5067071;28;20244;-54
2022/02/21 03:13:22;;;;;;;41.05;4.72;;;;;;;;;;5063794;28;20286;-54
2022/02/21 03:15:47;;;;;;;37.03;4.22;;;;;;;;;;5063714;28;20093;-51
2022/02/21 03:18:13;;;;;;;39.72;4.20;;;;;;;;;;5060741;28;20104;-54
2022/02/21 03:20:38;;;;;;;33.13;4.90;;;;;;;;;;5063526;28;20030;-51
2022/02/21 03:23:04;;;;;;;27.88;4.28;;;;;;;;;;5063849;28;20035;-53
2022/02/21 03:25:29;;;;;;;42.80;5.13;;;;;;;;;;5064326;28;20402;-51
2022/02/21 03:27:56;;;;;;;29.95;4.97;;;;;;;;;;5061567;28;20029;-52
2022/02/21 03:30:22;;;;;;;41.30;6.45;;;;;;;;;;5057838;28;20048;-49
2022/02/21 03:32:47;;;;;;;41.53;6.68;;;;;;;;;;5062556;28;20032;-52
2022/02/21 03:35:13;;;;;;;36.15;5.32;;;;;;;;;;5067010;28;20103;-52
2022/02/21 03:37:39;;;;;;;39.67;5.00;;;;;;;;;;5059611;28;20055;-53
2022/02/21 03:40:06;;;;;;;47.78;4.30;;;;;;;;;;5065149;28;20525;-55
2022/02/21 03:42:33;;;;;;;32.65;5.55;;;;;;;;;;5065503;28;20040;-55
2022/02/21 03:44:59;;;;;;;20.45;3.55;;;;;;;;;;5049638;28;20430;-54
2022/02/21 03:47:25;;;;;;;35.60;4.60;;;;;;;;;;5059966;28;20494;-56
2022/02/21 03:49:50;;;;;;;36.40;4.78;;;;;;;;;;5065200;28;20036;-53
2022/02/21 03:52:16;;;;;;;42.03;5.50;;;;;;;;;;5061824;28;20044;-54
2022/02/21 03:54:41;;;;;;;23.05;4.50;;;;;;;;;;5064385;28;20588;-50
2022/02/21 03:57:07;;;;;;;23.02;3.33;;;;;;;;;;5063190;28;20040;-53
2022/02/21 03:59:33;;;;;;;33.58;4.32;;;;;;;;;;5057381;28;20506;-53
2022/02/21 04:01:58;;;;;;;45.58;5.65;;;;;;;;;;5062484;28;20403;-54
2022/02/21 04:04:23;;;;;;;29.58;4.47;;;;;;;;;;5065825;28;20123;-54
2022/02/21 04:06:49;;;;;;;42.40;5.80;;;;;;;;;;5060871;28;20032;-53
2022/02/21 04:09:14;;;;;;;39.85;7.03;;;;;;;;;;5063520;28;20090;-50
2022/02/21 04:11:40;;;;;;;37.53;6.15;;;;;;;;;;5059762;28;20044;-54
2022/02/21 04:14:05;;;;;;;31.10;3.55;;;;;;;;;;5057219;28;20457;-55
2022/02/21 04:16:34;;;;;;;40.95;7.47;;;;;;;;;;5063656;28;20148;-53
2022/02/21 04:19:03;;;;;;;45.83;5.43;;;;;;;;;;5063702;28;20538;-57
2022/02/21 04:21:29;;;;;;;36.10;6.50;;;;;;;;;;5066676;28;20028;-54
2022/02/21 04:23:55;;;;;;;42.25;6.50;;;;;;;;;;5060518;28;20376;-50
2022/02/21 04:26:21;;;;;;;26.13;3.05;;;;;;;;;;5055634;28;20098;-55
2022/02/21 04:28:46;;;;;;;34.88;4.93;;;;;;;;;;5060811;28;20040;-56
2022/02/21 04:31:14;;;;;;;18.58;4.70;;;;;;;;;;5062494;28;20075;-56
2022/02/21 04:33:39;;;;;;;29.10;3.90;;;;;;;;;;5067084;28;20024;-55
2022/02/21 04:36:05;;;;;;;23.65;3.67;;;;;;;;;;5068873;28;20035;-54
2022/02/21 04:38:31;;;;;;;31.55;5.63;;;;;;;;;;5071780;28;20040;-57
2022/02/21 04:40:56;;;;;;;29.73;5.28;;;;;;;;;;5061664;28;20016;-56
2022/02/21 04:43:22;;;;;;;24.45;3.63;;;;;;;;;;5061065;28;20499;-54
2022/02/21 04:45:54;;;;;;;32.08;4.78;;;;;;;;;;5064512;28;20036;-54
2022/02/21 04:48:24;;;;;;;45.60;6.10;;;;;;;;;;5064029;28;20028;-56
2022/02/21 04:50:50;;;;;;;29.65;5.15;;;;;;;;;;5061861;28;20040;-58
2022/02/21 04:53:15;;;;;;;40.17;5.30;;;;;;;;;;5062985;28;20082;-58
2022/02/21 04:55:41;;;;;;;32.92;5.10;;;;;;;;;;5063223;28;20500;-55
2022/02/21 04:58:07;;;;;;;22.30;3.50;;;;;;;;;;5065775;28;20392;-54
2022/02/21 05:00:33;;;;;;;34.67;5.70;;;;;;;;;;5064903;28;20111;-56
2022/02/21 05:02:58;;;;;;;35.80;5.07;;;;;;;;;;5062000;28;20029;-56
2022/02/21 05:05:24;;;;;;;18.17;4.13;;;;;;;;;;5064757;28;20479;-56
2022/02/21 05:07:50;;;;;;;33.50;4.40;;;;;;;;;;5063284;28;20036;-56
2022/02/21 05:10:15;;;;;;;32.60;6.15;;;;;;;;;;5062914;28;20039;-57
2022/02/21 05:12:41;;;;;;;32.80;6.00;;;;;;;;;;5064863;28;20047;-58
2022/02/21 05:15:08;;;;;;;33.15;6.05;;;;;;;;;;5057093;28;20033;-56
2022/02/21 05:17:33;;;;;;;29.02;3.63;;;;;;;;;;5061365;28;20187;-56
2022/02/21 05:19:59;;;;;;;23.70;3.90;;;;;;;;;;5064689;28;20057;-55
2022/02/21 05:22:25;;;;;;;37.47;5.43;;;;;;;;;;5060312;28;20032;-57
2022/02/21 05:24:50;;;;;;;32.75;5.93;;;;;;;;;;5062981;28;20036;-52
2022/02/21 05:29:33;;;;;;;22.58;3.10;;;;;;;;;;5114724;27;20427;-56
2022/02/21 05:31:59;;;;;;;41.67;4.50;;;;;;;;;;5099213;28;20513;-58
2022/02/21 05:34:24;;;;;;;25.88;3.88;;;;;;;;;;5101871;28;20445;-58
2022/02/21 05:36:50;;;;;;;34.33;3.97;;;;;;;;;;5098251;28;20035;-57
2022/02/21 05:39:15;;;;;;;20.35;3.83;;;;;;;;;;5115532;28;20039;-58
2022/02/21 05:41:41;;;;;;;32.50;4.22;;;;;;;;;;5104603;28;20027;-57
2022/02/21 05:44:06;;;;;;;35.67;4.55;;;;;;;;;;5107518;28;20408;-58
2022/02/21 05:46:32;;;;;;;34.00;4.22;;;;;;;;;;5108562;28;20042;-53
2022/02/21 05:48:57;;;;;;;30.17;4.35;;;;;;;;;;5113700;28;20043;-57
2022/02/21 05:51:23;;;;;;;33.60;6.05;;;;;;;;;;5112636;28;20111;-56
2022/02/21 05:53:49;;;;;;;48.13;5.60;;;;;;;;;;5101775;28;20028;-57
2022/02/21 05:56:14;;;;;;;28.23;4.43;;;;;;;;;;5084688;28;20032;-57
2022/02/21 05:58:40;;;;;;;25.70;3.42;;;;;;;;;;5104112;28;20037;-57
2022/02/21 06:01:06;;;;;;;25.20;5.20;;;;;;;;;;5107372;28;20501;-57
2022/02/21 06:03:31;;;;;;;39.63;4.13;;;;;;;;;;5116693;28;20047;-57
2022/02/21 06:05:57;;;;;;;28.15;3.80;;;;;;;;;;5109921;28;20053;-57
2022/02/21 06:08:23;;;;;;;24.00;4.30;;;;;;;;;;5107624;27;20111;-58
2022/02/21 06:10:50;;;;;;;39.28;5.07;;;;;;;;;;5106241;28;20024;-57
2022/02/21 06:13:16;;;;;;;31.65;3.70;;;;;;;;;;5108404;28;20019;-58
2022/02/21 06:15:41;;;;;;;23.45;3.17;;;;;;;;;;5113828;28;20088;-57
2022/02/21 06:18:07;;;;;;;31.30;4.22;;;;;;;;;;5111585;28;20035;-57
2022/02/21 06:20:32;;;;;;;24.25;3.70;;;;;;;;;;5106524;28;20031;-57
2022/02/21 06:22:58;;;;;;;17.88;3.20;;;;;;;;;;5109081;28;20027;-56
2022/02/21 06:25:23;;;;;;;34.17;5.15;;;;;;;;;;5104768;28;20174;-57
2022/02/21 06:27:49;;;;;;;32.10;5.63;;;;;;;;;;5104478;28;20490;-56
2022/02/21 06:30:14;;;;;;;30.40;6.65;;;;;;;;;;5106147;27;20031;-55
2022/02/21 06:32:40;;;;;;;17.73;3.47;;;;;;;;;;5108212;28;20104;-56
2022/02/21 06:35:07;;;;;;;32.75;4.95;;;;;;;;;;5104409;28;20035;-53
2022/02/21 06:37:33;;;;;;;27.23;3.55;;;;;;;;;;5103040;28;20053;-57
2022/02/21 06:39:58;;;;;;;28.63;4.10;;;;;;;;;;5104860;28;20027;-56
2022/02/21 06:42:24;;;;;;;31.98;4.13;;;;;;;;;;5091192;28;20271;-55
2022/02/21 06:44:49;;;;;;;27.98;5.13;;;;;;;;;;5091310;28;20042;-56
2022/02/21 06:47:15;;;;;;;19.77;3.30;;;;;;;;;;5093796;28;20105;-57
2022/02/21 06:49:41;;;;;;;23.20;4.82;;;;;;;;;;5092984;28;20048;-55
2022/02/21 06:52:07;;;;;;;24.60;4.05;;;;;;;;;;5098364;28;20088;-58
2022/02/21 06:54:33;;;;;;;38.33;5.70;;;;;;;;;;5093575;28;20032;-53
2022/02/21 06:56:58;;;;;;;33.40;5.72;;;;;;;;;;5090034;28;20028;-53
2022/02/21 06:59:24;;;;;;;40.95;6.05;;;;;;;;;;5093483;28;20035;-57
2022/02/21 07:01:49;;;;;;;34.58;4.07;;;;;;;;;;5085873;28;20440;-54
2022/02/21 07:04:15;;;;;;;23.98;4.50;;;;;;;;;;5091011;28;20062;-55
2022/02/21 07:06:40;;;;;;;32.88;5.88;;;;;;;;;;5089517;28;20085;-53
2022/02/21 07:09:06;;;;;;;52.33;6.88;;;;;;;;;;5090128;28;20036;-58
2022/02/21 07:11:31;;;;;;;30.67;5.72;;;;;;;;;;5088528;28;20044;-56
2022/02/21 07:13:57;;;;;;;38.05;4.53;;;;;;;;;;5092660;28;20035;-55
2022/02/21 07:16:23;;;;;;;37.22;5.95;;;;;;;;;;5083930;28;20032;-57
2022/02/21 07:18:48;;;;;;;28.83;3.35;;;;;;;;;;5080477;28;20037;-56
2022/02/21 07:21:14;;;;;;;35.00;4.45;;;;;;;;;;5090115;28;20055;-56
2022/02/21 07:23:39;;;;;;;53.15;5.68;;;;;;;;;;5080782;28;20249;-56
2022/02/21 07:26:05;;;;;;;32.88;5.65;;;;;;;;;;5088101;28;20036;-56
2022/02/21 07:28:31;;;;;;;19.88;3.70;;;;;;;;;;5085849;28;20036;-55
2022/02/21 07:30:57;;;;;;;37.05;5.72;;;;;;;;;;5089603;28;20497;-54
2022/02/21 07:33:23;;;;;;;39.28;6.22;;;;;;;;;;5089917;28;20035;-54
2022/02/21 07:35:48;;;;;;;29.50;5.03;;;;;;;;;;5085181;28;20039;-57
2022/02/21 07:38:14;;;;;;;55.88;5.45;;;;;;;;;;5092513;28;20042;-56
2022/02/21 07:40:39;;;;;;;37.10;4.88;;;;;;;;;;5083899;28;20036;-57
2022/02/21 07:43:05;;;;;;;36.13;5.55;;;;;;;;;;5086695;28;20390;-57
2022/02/21 07:45:30;;;;;;;34.55;5.00;;;;;;;;;;5086303;28;20112;-54
2022/02/21 07:48:00;;;;;;;33.83;6.03;;;;;;;;;;5080225;28;20492;-57
2022/02/21 07:50:29;;;;;;;29.52;4.45;;;;;;;;;;5084766;28;20031;-58
2022/02/21 07:52:55;;;;;;;43.78;6.70;;;;;;;;;;5086905;28;21216;-58
2022/02/21 07:55:20;;;;;;;62.90;6.32;;;;;;;;;;5089077;28;20032;-55
2022/02/21 07:57:46;;;;;;;47.45;6.47;;;;;;;;;;5092142;28;20070;-57
2022/02/21 08:00:17;;;;;;;52.05;6.47;;;;;;;;;;5080125;28;20803;-55
2022/02/21 08:02:43;;;;;;;36.22;6.13;;;;;;;;;;5082317;28;20043;-58
2022/02/21 08:05:09;;;;;;;42.00;4.55;;;;;;;;;;5097177;28;20088;-57
2022/02/21 08:07:35;;;;;;;36.20;4.85;;;;;;;;;;5090172;28;20324;-57
2022/02/21 08:10:01;;;;;;;38.33;4.95;;;;;;;;;;5088985;28;20321;-57
2022/02/21 08:12:27;;;;;;;27.85;4.40;;;;;;;;;;5086980;28;20309;-58
2022/02/21 08:14:52;;;;;;;45.20;6.65;;;;;;;;;;5088153;28;20039;-55
2022/02/21 08:17:19;;;;;;;37.83;6.70;;;;;;;;;;5080677;28;20073;-56
2022/02/21 08:19:45;;;;;;;24.38;4.60;;;;;;;;;;5086815;28;20509;-57
2022/02/21 08:22:10;;;;;;;35.20;4.45;;;;;;;;;;5084230;28;20036;-57
2022/02/21 08:24:36;;;;;;;60.05;6.55;;;;;;;;;;5084129;28;20443;-57
2022/02/21 08:27:02;;;;;;;37.70;4.38;;;;;;;;;;5085978;28;20412;-57
2022/02/21 08:29:27;;;;;;;40.38;7.18;;;;;;;;;;5089369;28;20477;-56
2022/02/21 08:31:54;;;;;;;29.70;5.28;;;;;;;;;;5084724;28;20553;-57
2022/02/21 08:34:20;;;;;;;39.65;5.03;;;;;;;;;;5094293;28;20065;-56
2022/02/21 08:36:46;;;;;;;35.65;5.63;;;;;;;;;;5089423;28;20441;-51
2022/02/21 08:39:12;;;;;;;28.98;5.18;;;;;;;;;;5089410;28;20031;-55
2022/02/21 08:41:37;;;;;;;57.40;8.57;;;;;;;;;;5085503;28;20031;-56
2022/02/21 08:44:03;;;;;;;44.88;6.70;;;;;;;;;;5079220;28;20036;-51
2022/02/21 08:46:29;;;;;;;42.67;5.90;;;;;;;;;;5081309;28;20122;-56
2022/02/21 08:48:54;;;;;;;47.13;5.65;;;;;;;;;;5083103;28;20051;-54
2022/02/21 08:51:21;;;;;;;53.22;6.55;;;;;;;;;;5084940;28;20036;-57
2022/02/21 08:53:46;;;;;;;46.10;7.00;;;;;;;;;;5086983;28;20038;-54
2022/02/21 08:56:12;;;;;;;30.40;5.72;;;;;;;;;;5081507;28;20032;-58
2022/02/21 08:58:37;;;;;;;60.22;7.03;;;;;;;;;;5093976;28;20501;-57
2022/02/21 09:01:03;;;;;;;58.00;6.57;;;;;;;;;;5086612;28;20060;-55
2022/02/21 09:03:29;;;;;;;47.92;6.13;;;;;;;;;;5085422;28;20031;-57
2022/02/21 09:05:54;;;;;;;46.00;5.30;;;;;;;;;;5092486;28;20269;-57
2022/02/21 09:08:20;;;;;;;30.30;4.90;;;;;;;;;;5094555;28;20024;-56
2022/02/21 09:10:46;;;;;;;25.95;4.32;;;;;;;;;;5083885;28;20051;-57
2022/02/21 09:13:12;;;;;;;50.58;6.50;;;;;;;;;;5093511;28;20093;-56
2022/02/21 09:15:38;;;;;;;40.90;5.35;;;;;;;;;;5087355;28;20035;-57
2022/02/21 09:18:05;;;;;;;37.97;5.70;;;;;;;;;;5087874;28;20532;-54
2022/02/21 09:20:35;;;;;;;34.60;4.38;;;;;;;;;;5087089;28;20406;-56
2022/02/21 09:23:00;;;;;;;39.67;6.57;;;;;;;;;;5083221;28;20043;-56
2022/02/21 09:25:26;;;;;;;41.58;5.22;;;;;;;;;;5094603;28;20028;-56
2022/02/21 09:27:52;;;;;;;52.47;5.25;;;;;;;;;;5080531;28;20036;-58
2022/02/21 09:30:18;;;;;;;39.15;4.95;;;;;;;;;;5085333;28;20551;-56
2022/02/21 09:32:44;;;;;;;49.60;6.32;;;;;;;;;;5086397;28;20111;-54
2022/02/21 09:35:11;;;;;;;35.00;5.57;;;;;;;;;;5094582;28;20118;-55
2022/02/21 09:37:38;;;;;;;38.25;6.22;;;;;;;;;;5090918;28;20767;-54
2022/02/21 09:40:08;;;;;;;60.33;7.20;;;;;;;;;;5085488;28;20101;-57
2022/02/21 09:42:36;;;;;;;51.30;5.85;;;;;;;;;;5088459;28;20039;-54
2022/02/21 09:45:03;;;;;;;60.15;5.93;;;;;;;;;;5082605;28;20034;-56
2022/02/21 09:47:30;;;;;;;40.17;6.30;;;;;;;;;;5086569;28;20043;-52
2022/02/21 09:49:56;;;;;;;46.13;8.13;;;;;;;;;;5076550;28;20105;-54
2022/02/21 09:52:22;;;;;;;48.03;7.03;;;;;;;;;;5086645;28;20573;-56
2022/02/21 09:54:48;;;;;;;52.67;11.95;;;;;;;;;;5084227;28;20031;-55
2022/02/21 09:57:16;;;;;;;44.40;6.38;;;;;;;;;;5089015;28;20023;-57
2022/02/21 09:59:42;;;;;;;56.30;6.05;;;;;;;;;;5079209;28;20062;-57
2022/02/21 10:02:29;;;;;;;44.28;6.18;;;;;;;;;;5084935;28;20478;-55
2022/02/21 10:05:21;;;;;;;46.65;5.60;;;;;;;;;;5089647;28;20032;-54
2022/02/21 10:07:47;;;;;;;42.60;4.77;;;;;;;;;;5089876;28;20535;-57
2022/02/21 10:10:17;;;;;;;49.15;6.22;;;;;;;;;;5084196;28;20032;-58
2022/02/21 10:12:49;;;;;;;60.35;9.93;;;;;;;;;;5083000;28;20036;-56
2022/02/21 10:15:21;;;;;;;35.72;5.05;;;;;;;;;;5089952;28;20101;-55
2022/02/21 10:17:47;;;;;;;47.67;5.73;;;;;;;;;;5089769;28;20121;-57
2022/02/21 10:20:14;;;;;;;37.47;5.30;;;;;;;;;;5089784;28;20359;-56
2022/02/21 10:22:58;;;;;;;45.30;5.07;;;;;;;;;;5093408;28;20030;-55
2022/02/21 10:25:24;;;;;;;56.65;6.65;;;;;;;;;;5094574;28;20035;-54
2022/02/21 10:27:50;;;;;;;71.68;6.35;;;;;;;;;;5086388;28;20040;-57
2022/02/21 10:30:19;;;;;;;47.67;6.28;;;;;;;;;;5095665;28;20349;-57
2022/02/21 10:32:47;;;;;;;45.40;6.30;;;;;;;;;;5088323;28;20016;-56
2022/02/21 10:35:23;;;;;;;28.75;5.53;;;;;;;;;;5091624;28;20132;-55
2022/02/21 10:37:59;;;;;;;62.08;7.15;;;;;;;;;;5086075;28;20050;-58
2022/02/21 10:40:36;;;;;;;52.17;6.53;;;;;;;;;;5091463;28;20027;-56
2022/02/21 10:43:10;;;;;;;42.80;6.35;;;;;;;;;;5086435;28;20039;-50
2022/02/21 10:45:37;;;;;;;57.47;7.30;;;;;;;;;;5090850;28;20475;-56
2022/02/21 10:48:14;;;;;;;33.88;5.85;;;;;;;;;;5087553;28;20032;-54
2022/02/21 10:51:02;;;;;;;53.72;6.30;;;;;;;;;;5082340;28;20114;-57
2022/02/21 10:53:45;;;;;;;60.35;6.95;;;;;;;;;;5075679;28;20589;-55
2022/02/21 10:56:12;;;;;;;33.72;5.43;;;;;;;;;;5080056;28;20386;-57
2022/02/21 10:58:38;;;;;;;49.70;6.80;;;;;;;;;;5077720;28;20024;-55
2022/02/21 11:01:05;;;;;;;61.30;6.90;;;;;;;;;;5092129;28;20509;-57
2022/02/21 11:03:31;;;;;;;34.00;5.03;;;;;;;;;;5086368;28;20032;-56
2022/02/21 11:06:01;;;;;;;47.65;6.85;;;;;;;;;;5087574;28;20634;-56
2022/02/21 11:08:29;;;;;;;61.88;5.82;;;;;;;;;;5091013;28;20571;-56
2022/02/21 11:11:04;;;;;;;37.40;5.65;;;;;;;;;;5092191;28;20356;-55
2022/02/21 11:13:33;;;;;;;56.08;4.88;;;;;;;;;;5094297;28;20115;-54
2022/02/21 11:15:59;;;;;;;43.45;5.13;;;;;;;;;;5085007;28;20020;-54
2022/02/21 11:18:25;;;;;;;38.33;4.95;;;;;;;;;;5086042;28;20085;-51
2022/02/21 11:20:51;;;;;;;52.13;8.48;;;;;;;;;;5092386;28;20024;-57
2022/02/21 11:23:17;;;;;;;48.03;5.45;;;;;;;;;;5094789;28;20050;-57
2022/02/21 11:25:54;;;;;;;48.38;5.45;;;;;;;;;;5088782;28;20507;-54
2022/02/21 11:28:44;;;;;;;62.28;7.30;;;;;;;;;;5079389;28;20522;-53
2022/02/21 11:31:14;;;;;;;46.30;5.50;;;;;;;;;;5080204;28;20387;-59
2022/02/21 11:34:02;;;;;;;35.65;5.95;;;;;;;;;;5085358;28;20393;-55
2022/02/21 11:36:28;;;;;;;33.67;5.70;;;;;;;;;;5079236;28;20490;-52
2022/02/21 11:38:56;;;;;;;35.05;5.32;;;;;;;;;;5086692;28;20059;-54
2022/02/21 11:41:34;;;;;;;41.30;6.50;;;;;;;;;;5088186;28;20043;-56
2022/02/21 11:44:21;;;;;;;35.65;4.88;;;;;;;;;;5085168;28;20440;-54
2022/02/21 11:46:48;;;;;;;44.72;7.15;;;;;;;;;;5099214;27;20252;-54
2022/02/21 11:49:27;;;;;;;37.15;6.40;;;;;;;;;;5086431;28;20032;-55
2022/02/21 11:51:53;;;;;;;64.68;6.40;;;;;;;;;;5082970;28;20061;-57
2022/02/21 11:54:18;;;;;;;44.50;6.13;;;;;;;;;;5090409;28;20065;-56
2022/02/21 11:56:55;;;;;;;35.22;4.65;;;;;;;;;;5094381;28;20029;-55
2022/02/21 11:59:21;;;;;;;34.50;4.05;;;;;;;;;;5094264;28;20093;-55
2022/02/21 12:02:02;;;;;;;51.20;5.05;;;;;;;;;;5089026;28;20551;-57
2022/02/21 12:04:45;;;;;;;40.00;4.53;;;;;;;;;;5090913;28;20399;-56
2022/02/21 12:07:21;;;;;;;43.78;5.53;;;;;;;;;;5095591;28;20275;-55
2022/02/21 12:10:21;;;;;;;43.30;5.78;;;;;;;;;;5094616;28;20054;-55
2022/02/21 12:13:02;;;;;;;43.28;5.03;;;;;;;;;;5093329;28;20071;-56
2022/02/21 12:15:32;;;;;;;40.75;5.60;;;;;;;;;;5085837;28;20481;-56
2022/02/21 12:18:09;;;;;;;32.78;4.85;;;;;;;;;;5083508;28;20036;-57
2022/02/21 12:20:38;;;;;;;22.70;4.07;;;;;;;;;;5097262;28;20552;-56
2022/02/21 12:23:13;;;;;;;38.30;4.55;;;;;;;;;;5088586;28;20077;-56
2022/02/21 12:25:41;;;;;;;31.75;3.95;;;;;;;;;;5088736;28;20520;-56
2022/02/21 12:28:19;;;;;;;34.35;7.13;;;;;;;;;;5079258;28;20056;-55
2022/02/21 12:30:50;;;;;;;24.85;4.50;;;;;;;;;;5085796;28;20031;-57
2022/02/21 12:33:26;;;;;;;32.15;5.25;;;;;;;;;;5083365;28;20028;-56
2022/02/21 12:35:57;;;;;;;38.63;4.88;;;;;;;;;;5084325;28;20569;-57
2022/02/21 12:38:24;;;;;;;23.55;3.63;;;;;;;;;;5086865;28;20157;-56
2022/02/21 12:41:04;;;;;;;26.20;4.07;;;;;;;;;;5089188;28;20486;-55
2022/02/21 12:43:45;;;;;;;29.63;3.60;;;;;;;;;;5086579;28;20096;-51
2022/02/21 12:46:13;;;;;;;34.88;4.40;;;;;;;;;;5076568;28;20035;-57
2022/02/21 12:48:39;;;;;;;31.45;4.75;;;;;;;;;;5080173;28;20934;-57
2022/02/21 12:51:05;;;;;;;45.38;5.22;;;;;;;;;;5080533;28;20074;-56
2022/02/21 12:53:31;;;;;;;33.67;4.03;;;;;;;;;;5087042;28;20917;-56
2022/02/21 12:56:00;;;;;;;33.22;4.90;;;;;;;;;;5085480;28;20219;-57
2022/02/21 12:58:38;;;;;;;24.65;4.10;;;;;;;;;;5096052;28;20035;-57
2022/02/21 13:01:18;;;;;;;29.90;6.15;;;;;;;;;;5081921;28;20035;-58
2022/02/21 13:04:10;;;;;;;28.42;3.53;;;;;;;;;;5079988;28;20054;-55
2022/02/21 13:06:39;;;;;;;31.97;4.67;;;;;;;;;;5079709;28;20040;-58
2022/02/21 13:09:06;;;;;;;42.53;4.57;;;;;;;;;;5091024;28;20288;-57
2022/02/21 13:11:34;;;;;;;26.83;3.78;;;;;;;;;;5080118;28;20032;-58
2022/02/21 13:14:02;;;;;;;29.95;4.18;;;;;;;;;;5085323;28;20537;-58
2022/02/21 13:16:30;;;;;;;38.15;5.10;;;;;;;;;;5087756;28;20134;-57
2022/02/21 13:19:01;;;;;;;31.10;3.58;;;;;;;;;;5086628;28;20055;-57
2022/02/21 13:21:38;;;;;;;33.28;4.22;;;;;;;;;;5086526;28;20454;-57
2022/02/21 13:24:17;;;;;;;29.30;4.55;;;;;;;;;;5089007;28;20032;-56
2022/02/21 13:26:56;;;;;;;32.60;4.15;;;;;;;;;;5082088;28;20498;-56
2022/02/21 13:29:25;;;;;;;23.95;4.65;;;;;;;;;;5080480;28;20055;-56
2022/02/21 13:31:50;;;;;;;28.35;3.90;;;;;;;;;;5080986;28;20055;-57
2022/02/21 13:34:16;;;;;;;36.17;4.03;;;;;;;;;;5086785;28;20070;-57
2022/02/21 13:36:44;;;;;;;28.38;2.97;;;;;;;;;;5086405;28;20550;-56
2022/02/21 13:39:18;;;;;;;24.20;3.65;;;;;;;;;;5086801;28;20029;-58
2022/02/21 13:41:45;;;;;;;35.08;4.05;;;;;;;;;;5081089;28;20161;-57
2022/02/21 13:44:22;;;;;;;31.45;4.38;;;;;;;;;;5086545;28;20031;-59
2022/02/21 13:46:47;;;;;;;38.40;4.93;;;;;;;;;;5086897;28;20036;-56
2022/02/21 13:49:12;;;;;;;31.95;3.67;;;;;;;;;;5085703;28;20032;-56
2022/02/21 13:51:38;;;;;;;32.47;4.40;;;;;;;;;;5082747;28;20167;-57
2022/02/21 13:54:27;;;;;;;24.88;4.82;;;;;;;;;;5096373;28;20442;-58
2022/02/21 13:57:12;;;;;;;25.38;3.38;;;;;;;;;;5087506;28;20063;-56
2022/02/21 13:59:45;;;;;;;27.85;3.60;;;;;;;;;;5094108;28;20027;-58
2022/02/21 14:02:21;;;;;;;27.63;4.22;;;;;;;;;;5088620;28;20100;-56
2022/02/21 14:04:46;;;;;;;26.80;4.00;;;;;;;;;;5084873;28;20457;-57
2022/02/21 14:07:12;;;;;;;25.70;3.67;;;;;;;;;;5085586;28;20115;-58
2022/02/21 14:09:37;;;;;;;27.38;3.60;;;;;;;;;;5088715;28;20059;-57
2022/02/21 14:12:13;;;;;;;19.52;3.60;;;;;;;;;;5091654;28;20038;-57
2022/02/21 14:14:39;;;;;;;16.63;2.63;;;;;;;;;;5087082;28;20059;-57
2022/02/21 14:17:05;;;;;;;21.80;3.28;;;;;;;;;;5090022;28;20489;-56
2022/02/21 14:19:31;;;;;;;32.35;4.55;;;;;;;;;;5087895;28;20130;-57
2022/02/21 14:21:57;;;;;;;21.08;3.35;;;;;;;;;;5096532;28;20106;-57
2022/02/21 14:24:24;;;;;;;21.67;3.20;;;;;;;;;;5090166;28;20081;-55
2022/02/21 14:26:51;;;;;;;26.10;3.65;;;;;;;;;;5081404;28;20035;-57
2022/02/21 14:29:17;;;;;;;21.65;2.85;;;;;;;;;;5085531;28;20167;-57
2022/02/21 14:31:43;;;;;;;29.35;3.63;;;;;;;;;;5094022;28;20032;-57
2022/02/21 14:34:09;;;;;;;15.10;2.47;;;;;;;;;;5089120;28;20035;-57
2022/02/21 14:36:35;;;;;;;18.15;3.03;;;;;;;;;;5089161;28;20055;-57